createdAt,value
2017-08-09T00:00:28.146Z,5.43
2017-08-09T00:02:55.678Z,6.03
2017-08-09T00:05:24.013Z,6.30
2017-08-09T00:07:52.507Z,5.93
2017-08-09T00:10:20.039Z,6.57
2017-08-09T00:12:47.604Z,6.40
2017-08-09T00:15:15.754Z,6.20
2017-08-09T00:17:43.334Z,6.07
2017-08-09T00:20:10.866Z,5.83
2017-08-09T00:22:38.407Z,7.53
2017-08-09T00:25:06.735Z,6.73
2017-08-09T00:27:35.555Z,6.07
2017-08-09T00:30:04.608Z,6.20
2017-08-09T00:32:33.250Z,7.50
2017-08-09T00:35:02.429Z,7.37
2017-08-09T00:37:30.079Z,6.87
2017-08-09T00:39:58.557Z,7.70
2017-08-09T00:42:27.214Z,8.33
2017-08-09T00:44:56.159Z,8.07
2017-08-09T00:47:24.509Z,7.33
2017-08-09T00:49:54.135Z,7.13
2017-08-09T00:52:23.097Z,8.07
2017-08-09T00:54:51.451Z,8.00
2017-08-09T00:57:18.990Z,7.50
2017-08-09T00:59:47.490Z,8.17
2017-08-09T01:02:15.874Z,8.23
2017-08-09T01:04:44.638Z,8.30
2017-08-09T01:07:12.676Z,9.10
2017-08-09T01:09:40.208Z,7.90
2017-08-09T01:12:07.780Z,9.13
2017-08-09T01:14:36.216Z,7.53
2017-08-09T01:17:04.234Z,8.27
2017-08-09T01:19:33.317Z,7.87
2017-08-09T01:22:02.631Z,9.43
2017-08-09T01:24:31.999Z,9.40
2017-08-09T01:26:59.569Z,11.20
2017-08-09T01:29:27.106Z,10.00
2017-08-09T01:31:54.648Z,10.17
2017-08-09T01:34:22.267Z,9.90
2017-08-09T01:36:49.834Z,11.73
2017-08-09T01:39:18.726Z,10.90
2017-08-09T01:41:46.330Z,10.90
2017-08-09T01:44:14.002Z,9.97
2017-08-09T01:46:41.542Z,10.10
2017-08-09T01:49:11.037Z,9.90
2017-08-09T01:51:39.837Z,8.53
2017-08-09T01:54:07.724Z,9.90
2017-08-09T01:56:36.209Z,8.20
2017-08-09T01:59:04.340Z,8.27
2017-08-09T02:01:32.678Z,8.00
2017-08-09T02:04:02.100Z,9.67
2017-08-09T02:06:30.901Z,7.50
2017-08-09T02:08:58.602Z,9.17
2017-08-09T02:11:26.349Z,8.30
2017-08-09T02:13:55.799Z,9.40
2017-08-09T02:16:23.335Z,8.83
2017-08-09T02:18:50.874Z,8.67
2017-08-09T02:21:18.977Z,8.23
2017-08-09T02:23:47.473Z,8.57
2017-08-09T02:26:15.049Z,9.57
2017-08-09T02:28:42.587Z,8.60
2017-08-09T02:31:10.127Z,10.20
2017-08-09T02:33:37.688Z,9.30
2017-08-09T02:36:06.054Z,8.50
2017-08-09T02:38:33.648Z,7.43
2017-08-09T02:41:01.191Z,7.20
2017-08-09T02:43:29.658Z,8.30
2017-08-09T02:45:57.765Z,6.20
2017-08-09T02:48:25.293Z,5.87
2017-08-09T02:50:53.182Z,6.43
2017-08-09T02:53:20.705Z,5.87
2017-08-09T02:55:48.262Z,5.83
2017-08-09T02:58:16.239Z,6.13
2017-08-09T03:00:44.029Z,5.50
2017-08-09T03:03:12.937Z,6.20
2017-08-09T03:05:40.470Z,6.50
2017-08-09T03:08:08.001Z,6.03
2017-08-09T03:10:35.561Z,6.67
2017-08-09T03:13:03.238Z,5.57
2017-08-09T03:15:32.060Z,6.67
2017-08-09T03:17:59.782Z,6.80
2017-08-09T03:20:28.368Z,5.40
2017-08-09T03:22:56.728Z,6.60
2017-08-09T03:25:24.265Z,4.90
2017-08-09T03:27:52.604Z,4.83
2017-08-09T03:30:20.182Z,5.63
2017-08-09T03:32:48.622Z,4.30
2017-08-09T03:35:16.193Z,4.60
2017-08-09T03:37:44.581Z,4.40
2017-08-09T03:40:12.422Z,4.20
2017-08-09T03:42:39.987Z,3.57
2017-08-09T03:45:08.355Z,3.90
2017-08-09T03:47:35.931Z,4.60
2017-08-09T03:50:05.049Z,3.87
2017-08-09T03:52:32.586Z,4.20
2017-08-09T03:55:00.145Z,4.00
2017-08-09T03:57:27.704Z,3.97
2017-08-09T03:59:55.434Z,4.67
2017-08-09T04:02:23.646Z,3.70
2017-08-09T04:04:51.786Z,4.50
2017-08-09T04:07:19.315Z,4.83
2017-08-09T04:09:47.717Z,3.73
2017-08-09T04:12:16.883Z,4.73
2017-08-09T04:14:45.857Z,4.13
2017-08-09T04:17:15.087Z,3.87
2017-08-09T04:19:43.382Z,5.10
2017-08-09T04:22:10.959Z,4.47
2017-08-09T04:24:38.489Z,4.40
2017-08-09T04:27:06.416Z,4.83
2017-08-09T04:29:34.955Z,4.70
2017-08-09T04:32:02.478Z,5.03
2017-08-09T04:34:30.062Z,4.70
2017-08-09T04:36:59.215Z,4.90
2017-08-09T04:39:26.750Z,4.17
2017-08-09T04:41:55.134Z,4.20
2017-08-09T04:44:22.653Z,4.00
2017-08-09T04:46:50.183Z,5.10
2017-08-09T04:49:22.623Z,4.33
2017-08-09T04:51:52.056Z,3.57
2017-08-09T04:54:21.207Z,3.90
2017-08-09T04:56:53.667Z,3.10
2017-08-09T04:59:22.690Z,4.00
2017-08-09T05:04:27.707Z,4.27
2017-08-09T05:07:04.667Z,4.63
2017-08-09T05:09:39.712Z,3.77
2017-08-09T05:20:22.804Z,4.83
2017-08-09T05:23:01.098Z,3.20
2017-08-09T05:25:29.560Z,4.30
2017-08-09T05:28:02.519Z,4.00
2017-08-09T05:30:30.695Z,3.00
2017-08-09T05:33:01.216Z,4.80
2017-08-09T05:35:30.876Z,3.83
2017-08-09T05:40:44.009Z,3.70
2017-08-09T05:43:17.531Z,4.33
2017-08-09T05:45:54.371Z,4.30
2017-08-09T05:48:29.891Z,4.13
2017-08-09T05:51:06.471Z,3.57
2017-08-09T05:53:43.025Z,4.43
2017-08-09T05:56:14.104Z,4.40
2017-08-09T05:58:47.107Z,3.83
2017-08-09T06:01:29.850Z,3.73
2017-08-09T06:04:07.142Z,4.40
2017-08-09T06:06:36.684Z,3.77
2017-08-09T06:09:06.756Z,4.00
2017-08-09T06:11:39.331Z,3.13
2017-08-09T06:14:10.061Z,4.10
2017-08-09T06:16:39.197Z,4.00
2017-08-09T06:19:06.735Z,3.57
2017-08-09T06:21:34.415Z,3.20
2017-08-09T06:24:02.709Z,3.47
2017-08-09T06:26:37.026Z,4.10
2017-08-09T06:29:07.240Z,3.23
2017-08-09T06:31:42.494Z,3.30
2017-08-09T06:34:13.380Z,3.20
2017-08-09T06:36:45.049Z,3.00
2017-08-09T06:39:18.774Z,2.40
2017-08-09T06:55:26.658Z,1.83
2017-08-09T07:03:33.967Z,2.57
2017-08-09T07:09:29.186Z,2.47
2017-08-09T07:12:09.655Z,2.30
2017-08-09T07:17:32.415Z,1.97
2017-08-09T07:20:11.198Z,1.83
2017-08-09T07:28:02.896Z,2.97
2017-08-09T07:30:40.245Z,2.00
2017-08-09T07:33:15.343Z,1.70
2017-08-09T07:35:48.936Z,2.77
2017-08-09T07:41:01.046Z,2.10
2017-08-09T07:46:26.471Z,2.07
2017-08-09T07:49:13.320Z,1.63
2017-08-09T07:51:47.412Z,2.90
2017-08-09T07:54:17.432Z,2.23
2017-08-09T07:56:51.116Z,2.30
2017-08-09T07:59:27.389Z,2.07
2017-08-09T08:05:04.401Z,2.63
2017-08-09T08:07:46.907Z,2.43
2017-08-09T08:13:12.833Z,2.60
2017-08-09T08:24:13.437Z,2.60
2017-08-09T08:27:01.330Z,3.13
2017-08-09T08:29:40.922Z,3.57
2017-08-09T08:38:38.202Z,2.43
2017-08-09T08:41:29.611Z,2.90
2017-08-09T08:50:12.902Z,3.13
2017-08-09T08:55:32.568Z,3.60
2017-08-09T08:58:30.760Z,3.53
2017-08-09T09:01:07.530Z,3.53
2017-08-09T09:06:43.832Z,3.47
2017-08-09T09:12:04.323Z,3.17
2017-08-09T09:17:15.366Z,3.40
2017-08-09T09:19:49.911Z,3.43
2017-08-09T09:22:20.464Z,3.17
2017-08-09T09:24:58.710Z,3.80
2017-08-09T09:27:38.036Z,3.87
2017-08-09T09:30:10.189Z,3.67
2017-08-09T09:32:37.983Z,3.30
2017-08-09T09:35:05.843Z,3.60
2017-08-09T09:37:43.907Z,4.53
2017-08-09T09:40:28.307Z,4.17
2017-08-09T09:42:55.895Z,3.70
2017-08-09T09:45:25.578Z,3.70
2017-08-09T09:47:53.111Z,3.50
2017-08-09T09:50:21.466Z,4.67
2017-08-09T09:52:49.766Z,4.20
2017-08-09T09:55:20.294Z,4.00
2017-08-09T09:57:50.016Z,3.40
2017-08-09T10:00:17.549Z,3.07
2017-08-09T10:03:01.374Z,3.40
2017-08-09T10:05:32.787Z,3.43
2017-08-09T10:08:11.109Z,4.23
2017-08-09T10:10:50.606Z,3.80
2017-08-09T10:13:25.951Z,3.10
2017-08-09T10:15:57.418Z,2.87
2017-08-09T10:18:34.722Z,2.70
2017-08-09T10:21:03.012Z,2.83
2017-08-09T10:29:13.568Z,3.37
2017-08-09T10:31:53.162Z,3.30
2017-08-09T10:34:32.334Z,2.83
2017-08-09T10:37:18.727Z,2.47
2017-08-09T10:39:52.802Z,2.63
2017-08-09T10:45:20.779Z,2.40
2017-08-09T10:47:55.193Z,1.83
2017-08-09T10:50:44.457Z,2.50
2017-08-09T10:53:30.331Z,2.30
2017-08-09T10:58:47.491Z,2.00
2017-08-09T11:01:15.041Z,2.13
2017-08-09T11:03:50.449Z,2.40
2017-08-09T11:06:26.084Z,2.43
2017-08-09T11:08:55.833Z,2.60
2017-08-09T11:11:27.804Z,2.60
2017-08-09T11:14:02.034Z,2.10
2017-08-09T11:16:33.722Z,2.07
2017-08-09T11:19:02.170Z,1.87
2017-08-09T11:21:34.286Z,2.53
2017-08-09T11:24:02.718Z,1.87
2017-08-09T11:26:31.172Z,1.67
2017-08-09T11:29:04.067Z,2.37
2017-08-09T11:31:33.697Z,1.60
2017-08-09T11:34:02.031Z,2.20
2017-08-09T11:36:29.652Z,2.50
2017-08-09T11:38:57.446Z,1.73
2017-08-09T11:41:31.195Z,1.50
2017-08-09T11:43:59.625Z,1.63
2017-08-09T11:46:27.258Z,1.50
2017-08-09T11:48:55.061Z,2.40
2017-08-09T11:51:29.060Z,1.50
2017-08-09T11:53:57.903Z,1.80
2017-08-09T11:56:26.390Z,2.00
2017-08-09T11:58:58.558Z,2.30
2017-08-09T12:01:27.583Z,1.87
2017-08-09T12:03:57.744Z,1.70
2017-08-09T12:06:32.883Z,1.80
2017-08-09T12:09:04.672Z,2.00
2017-08-09T12:11:32.662Z,2.00
2017-08-09T12:14:01.786Z,2.00
2017-08-09T12:16:29.350Z,2.13
2017-08-09T12:18:56.907Z,2.10
2017-08-09T12:21:24.479Z,2.60
2017-08-09T12:23:55.922Z,1.80
2017-08-09T12:26:23.498Z,2.10
2017-08-09T12:28:51.882Z,1.30
2017-08-09T12:31:19.458Z,2.10
2017-08-09T12:33:48.299Z,1.30
2017-08-09T12:36:16.971Z,1.30
2017-08-09T12:38:44.559Z,1.10
2017-08-09T12:41:14.790Z,1.10
2017-08-09T12:43:42.349Z,1.50
2017-08-09T12:46:10.723Z,1.40
2017-08-09T12:48:48.371Z,1.40
2017-08-09T12:51:17.553Z,1.17
2017-08-09T12:53:45.134Z,1.07
2017-08-09T12:56:12.674Z,1.30
2017-08-09T12:58:42.617Z,1.40
2017-08-09T13:01:10.144Z,1.40
2017-08-09T13:03:37.720Z,1.50
2017-08-09T13:06:06.833Z,1.40
2017-08-09T13:08:34.424Z,1.27
2017-08-09T13:11:02.908Z,1.10
2017-08-09T13:13:30.479Z,1.10
2017-08-09T13:15:58.081Z,1.00
2017-08-09T13:18:25.632Z,0.67
2017-08-09T13:20:53.983Z,0.97
2017-08-09T13:23:21.567Z,1.00
2017-08-09T13:25:49.900Z,1.13
2017-08-09T13:28:17.482Z,1.47
2017-08-09T13:30:45.058Z,1.50
2017-08-09T13:33:13.395Z,1.40
2017-08-09T13:35:40.980Z,1.00
2017-08-09T13:38:08.579Z,1.10
2017-08-09T13:40:36.125Z,1.00
2017-08-09T13:43:04.715Z,1.30
2017-08-09T13:45:32.300Z,1.90
2017-08-09T13:47:59.940Z,1.47
2017-08-09T13:50:27.495Z,1.50
2017-08-09T13:52:55.044Z,2.10
2017-08-09T13:55:22.664Z,1.53
2017-08-09T13:57:50.239Z,1.80
2017-08-09T14:00:17.834Z,1.53
2017-08-09T14:02:45.610Z,1.30
2017-08-09T14:05:15.987Z,1.47
2017-08-09T14:07:43.535Z,1.07
2017-08-09T14:10:11.122Z,1.63
2017-08-09T14:12:39.447Z,1.80
2017-08-09T14:15:06.983Z,1.63
2017-08-09T14:17:34.544Z,1.47
2017-08-09T14:20:02.095Z,1.43
2017-08-09T14:22:29.670Z,1.50
2017-08-09T14:24:57.221Z,1.57
2017-08-09T14:27:24.850Z,1.63
2017-08-09T14:29:53.168Z,1.50
2017-08-09T14:32:20.753Z,1.93
2017-08-09T14:34:48.318Z,1.47
2017-08-09T14:37:15.927Z,1.57
2017-08-09T14:39:43.508Z,1.47
2017-08-09T14:42:11.107Z,1.53
2017-08-09T14:44:38.724Z,1.30
2017-08-09T14:47:06.302Z,1.63
2017-08-09T14:49:33.927Z,1.30
2017-08-09T14:52:01.471Z,1.53
2017-08-09T14:54:30.845Z,1.47
2017-08-09T14:56:58.473Z,1.63
2017-08-09T14:59:26.009Z,1.50
2017-08-09T15:01:53.619Z,1.33
2017-08-09T15:04:21.194Z,1.50
2017-08-09T15:06:48.769Z,1.37
2017-08-09T15:09:17.078Z,1.23
2017-08-09T15:11:44.622Z,1.50
2017-08-09T15:14:12.194Z,1.50
2017-08-09T15:16:39.790Z,1.73
2017-08-09T15:19:07.394Z,1.20
2017-08-09T15:21:36.758Z,1.57
2017-08-09T15:24:04.301Z,1.33
2017-08-09T15:26:31.919Z,1.87
2017-08-09T15:28:59.516Z,2.00
2017-08-09T15:31:27.105Z,1.50
2017-08-09T15:33:54.642Z,1.60
2017-08-09T15:36:22.177Z,1.97
2017-08-09T15:38:49.759Z,1.83
2017-08-09T15:41:17.330Z,1.53
2017-08-09T15:43:44.945Z,1.90
2017-08-09T15:46:12.517Z,1.90
2017-08-09T15:48:40.093Z,1.60
2017-08-09T15:51:07.637Z,2.00
2017-08-09T15:53:35.330Z,1.90
2017-08-09T15:56:02.897Z,1.90
2017-08-09T15:58:30.714Z,1.60
2017-08-09T16:00:58.339Z,1.30
2017-08-09T16:03:25.936Z,1.47
2017-08-09T16:05:53.483Z,1.67
2017-08-09T16:08:21.132Z,1.60
2017-08-09T16:10:49.609Z,1.63
2017-08-09T16:13:17.170Z,1.43
2017-08-09T16:15:45.829Z,1.53
2017-08-09T16:18:13.478Z,1.80
2017-08-09T16:20:41.035Z,1.50
2017-08-09T16:23:08.667Z,1.53
2017-08-09T16:25:36.285Z,1.30
2017-08-09T16:28:03.860Z,1.43
2017-08-09T16:30:31.440Z,1.60
2017-08-09T16:32:59.017Z,1.03
2017-08-09T16:35:26.574Z,1.30
2017-08-09T16:37:54.153Z,1.30
2017-08-09T16:40:21.703Z,1.00
2017-08-09T16:42:50.101Z,1.80
2017-08-09T16:45:17.679Z,1.40
2017-08-09T16:47:45.989Z,1.53
2017-08-09T16:50:13.610Z,1.60
2017-08-09T16:52:41.158Z,1.30
2017-08-09T16:55:08.751Z,1.40
2017-08-09T16:57:37.238Z,1.00
2017-08-09T17:00:04.790Z,1.27
2017-08-09T17:02:32.370Z,1.20
2017-08-09T17:04:59.969Z,1.00
2017-08-09T17:07:27.525Z,0.93
2017-08-09T17:09:55.111Z,1.33
2017-08-09T17:12:23.445Z,1.30
2017-08-09T17:14:51.413Z,1.40
2017-08-09T17:17:19.050Z,1.27
2017-08-09T17:19:46.655Z,1.10
2017-08-09T17:22:14.263Z,1.27
2017-08-09T17:24:41.817Z,1.10
2017-08-09T17:27:11.755Z,1.20
2017-08-09T17:29:42.500Z,1.13
2017-08-09T17:32:10.122Z,1.47
2017-08-09T17:34:38.425Z,1.50
2017-08-09T17:37:05.978Z,1.17
2017-08-09T17:39:34.351Z,1.10
2017-08-09T17:42:02.808Z,1.37
2017-08-09T17:44:31.464Z,1.17
2017-08-09T17:49:36.610Z,1.03
2017-08-09T17:52:04.220Z,1.60
2017-08-09T17:54:31.776Z,1.70
2017-08-09T17:57:00.419Z,1.20
2017-08-09T17:59:28.026Z,1.50
2017-08-09T18:01:55.966Z,1.13
2017-08-09T18:04:25.079Z,1.63
2017-08-09T18:06:53.407Z,1.30
2017-08-09T18:09:25.874Z,1.30
2017-08-09T18:11:54.261Z,1.40
2017-08-09T18:14:21.847Z,1.27
2017-08-09T18:16:49.382Z,1.23
2017-08-09T18:19:19.331Z,1.00
2017-08-09T18:21:47.712Z,1.30
2017-08-09T18:24:16.046Z,1.00
2017-08-09T18:26:43.619Z,1.43
2017-08-09T18:29:11.977Z,1.27
2017-08-09T18:31:39.514Z,1.20
2017-08-09T18:34:07.102Z,1.37
2017-08-09T18:36:34.664Z,1.47
2017-08-09T18:39:02.230Z,1.30
2017-08-09T18:41:29.782Z,1.37
2017-08-09T18:43:57.372Z,1.57
2017-08-09T18:46:25.695Z,1.60
2017-08-09T18:48:53.305Z,1.37
2017-08-09T18:51:20.863Z,1.00
2017-08-09T18:53:48.543Z,1.47
2017-08-09T18:56:17.776Z,1.63
2017-08-09T18:58:46.245Z,1.40
2017-08-09T19:01:13.866Z,1.20
2017-08-09T19:03:41.401Z,1.43
2017-08-09T19:06:08.947Z,1.50
2017-08-09T19:08:36.523Z,1.60
2017-08-09T19:11:04.064Z,1.73
2017-08-09T19:13:31.680Z,1.60
2017-08-09T19:15:59.996Z,1.70
2017-08-09T19:18:27.627Z,1.40
2017-08-09T19:20:58.678Z,1.40
2017-08-09T19:23:26.226Z,1.50
2017-08-09T19:25:53.941Z,1.63
2017-08-09T19:28:21.536Z,2.20
2017-08-09T19:30:49.869Z,1.30
2017-08-09T19:33:17.541Z,1.83
2017-08-09T19:35:46.981Z,2.30
2017-08-09T19:38:15.341Z,1.67
2017-08-09T19:40:42.946Z,1.73
2017-08-09T19:43:10.569Z,1.40
2017-08-09T19:45:38.209Z,2.13
2017-08-09T19:48:05.782Z,2.57
2017-08-09T19:50:33.345Z,2.00
2017-08-09T19:53:02.038Z,2.17
2017-08-09T19:55:32.238Z,2.10
2017-08-09T19:58:00.671Z,2.27
2017-08-09T20:00:28.331Z,2.60
2017-08-09T20:02:55.982Z,3.13
2017-08-09T20:05:24.154Z,3.13
2017-08-09T20:07:53.874Z,2.33
2017-08-09T20:10:27.514Z,2.50
2017-08-09T20:15:44.075Z,2.67
2017-08-09T20:23:41.796Z,2.83
2017-08-09T20:26:11.479Z,2.63
2017-08-09T20:28:40.651Z,2.43
2017-08-09T20:31:11.911Z,2.43
2017-08-09T20:33:44.687Z,2.80
2017-08-09T20:36:17.184Z,3.23
2017-08-09T20:38:45.663Z,4.40
2017-08-09T20:41:15.004Z,4.03
2017-08-09T20:43:44.335Z,8.23
2017-08-09T20:46:15.839Z,2.87
2017-08-09T20:54:36.639Z,2.33
2017-08-09T20:57:04.995Z,2.70
2017-08-09T21:02:23.478Z,3.27
2017-08-09T21:04:52.766Z,4.30
2017-08-09T21:10:16.480Z,3.13
2017-08-09T21:12:54.747Z,3.20
2017-08-09T21:15:23.351Z,2.90
2017-08-09T21:17:50.938Z,3.40
2017-08-09T21:20:20.782Z,3.13
2017-08-09T21:22:51.775Z,2.67
2017-08-09T21:25:19.320Z,2.50
2017-08-09T21:30:36.535Z,3.03
2017-08-09T21:33:04.130Z,3.47
2017-08-09T21:35:43.471Z,3.23
2017-08-09T21:38:13.673Z,3.33
2017-08-09T21:40:41.242Z,3.40
2017-08-09T21:43:08.777Z,3.43
2017-08-09T21:45:36.938Z,3.20
2017-08-09T21:48:07.051Z,8.67
2017-08-09T21:50:35.366Z,3.20
2017-08-09T21:53:03.932Z,3.40
2017-08-09T21:55:31.483Z,3.00
2017-08-09T21:57:59.014Z,4.07
2017-08-09T22:00:28.574Z,3.40
2017-08-09T22:02:56.877Z,3.63
2017-08-09T22:05:25.105Z,3.33
2017-08-09T22:07:52.634Z,4.37
2017-08-09T22:10:23.996Z,4.83
2017-08-09T22:12:52.358Z,5.17
2017-08-09T22:15:19.906Z,5.60
2017-08-09T22:17:47.489Z,4.33
2017-08-09T22:20:15.042Z,4.90
2017-08-09T22:22:42.610Z,4.10
2017-08-09T22:25:10.431Z,4.50
2017-08-09T22:27:41.594Z,4.90
2017-08-09T22:30:26.766Z,4.90
2017-08-09T22:36:07.597Z,5.37
2017-08-09T22:38:36.825Z,5.17
2017-08-09T22:41:36.113Z,4.97
2017-08-09T22:47:28.512Z,4.70
2017-08-09T22:50:15.175Z,4.13
2017-08-09T22:52:42.763Z,5.07
2017-08-09T22:55:15.183Z,4.30
2017-08-09T22:57:45.809Z,3.70
2017-08-09T23:00:18.348Z,4.90
2017-08-09T23:05:30.214Z,4.17
2017-08-09T23:08:02.998Z,4.60
2017-08-09T23:10:39.817Z,4.53
2017-08-09T23:13:13.142Z,5.63
2017-08-09T23:15:44.650Z,6.10
2017-08-09T23:18:15.943Z,5.80
2017-08-09T23:20:44.233Z,5.27
2017-08-09T23:23:18.504Z,5.00
2017-08-09T23:26:11.870Z,5.70
2017-08-09T23:28:55.990Z,11.43
2017-08-09T23:31:29.901Z,5.53
2017-08-09T23:36:35.125Z,5.47
2017-08-09T23:39:05.929Z,5.87
2017-08-09T23:41:43.815Z,6.47
2017-08-09T23:44:13.324Z,6.37
2017-08-09T23:49:23.334Z,6.87
2017-08-09T23:51:52.269Z,6.43
2017-08-09T23:54:28.432Z,6.10
2017-08-09T23:56:59.073Z,6.10
2017-08-09T23:59:32.472Z,6.07
